sensor_id;sensor_type;location;lat;lon;timestamp;P1;durP1;ratioP1;P2;durP2;ratioP2
81834;SDS011;71272;52.166;4.498;2023-11-18T00:02:10;25.43;;;10.00;;
81834;SDS011;71272;52.166;4.498;2023-11-18T00:04:35;22.70;;;11.40;;
81834;SDS011;71272;52.166;4.498;2023-11-18T00:07:01;17.27;;;9.70;;
81834;SDS011;71272;52.166;4.498;2023-11-18T00:09:26;22.60;;;11.63;;
81834;SDS011;71272;52.166;4.498;2023-11-18T00:11:52;20.17;;;10.27;;
81834;SDS011;71272;52.166;4.498;2023-11-18T00:14:18;21.60;;;12.23;;
81834;SDS011;71272;52.166;4.498;2023-11-18T00:16:45;28.70;;;11.93;;
81834;SDS011;71272;52.166;4.498;2023-11-18T00:19:10;28.80;;;12.13;;
81834;SDS011;71272;52.166;4.498;2023-11-18T00:21:36;22.27;;;11.73;;
81834;SDS011;71272;52.166;4.498;2023-11-18T00:24:01;28.03;;;12.93;;
81834;SDS011;71272;52.166;4.498;2023-11-18T00:26:26;25.92;;;13.45;;
81834;SDS011;71272;52.166;4.498;2023-11-18T00:28:51;20.93;;;12.97;;
81834;SDS011;71272;52.166;4.498;2023-11-18T00:31:17;28.23;;;12.87;;
81834;SDS011;71272;52.166;4.498;2023-11-18T00:33:42;30.23;;;13.40;;
81834;SDS011;71272;52.166;4.498;2023-11-18T00:36:08;31.17;;;12.98;;
81834;SDS011;71272;52.166;4.498;2023-11-18T00:38:33;29.73;;;14.70;;
81834;SDS011;71272;52.166;4.498;2023-11-18T00:40:58;36.37;;;15.80;;
81834;SDS011;71272;52.166;4.498;2023-11-18T00:43:23;25.83;;;13.80;;
81834;SDS011;71272;52.166;4.498;2023-11-18T00:45:48;33.53;;;13.73;;
81834;SDS011;71272;52.166;4.498;2023-11-18T00:48:14;32.23;;;14.53;;
81834;SDS011;71272;52.166;4.498;2023-11-18T00:50:39;33.97;;;14.95;;
81834;SDS011;71272;52.166;4.498;2023-11-18T00:53:04;30.47;;;14.50;;
81834;SDS011;71272;52.166;4.498;2023-11-18T00:55:30;33.60;;;15.48;;
81834;SDS011;71272;52.166;4.498;2023-11-18T00:57:56;29.00;;;14.50;;
81834;SDS011;71272;52.166;4.498;2023-11-18T01:00:21;35.10;;;14.10;;
81834;SDS011;71272;52.166;4.498;2023-11-18T01:02:49;33.00;;;14.57;;
81834;SDS011;71272;52.166;4.498;2023-11-18T01:05:15;29.23;;;14.23;;
81834;SDS011;71272;52.166;4.498;2023-11-18T01:07:40;32.35;;;15.35;;
81834;SDS011;71272;52.166;4.498;2023-11-18T01:10:06;41.47;;;15.90;;
81834;SDS011;71272;52.166;4.498;2023-11-18T01:12:31;34.63;;;15.48;;
81834;SDS011;71272;52.166;4.498;2023-11-18T01:14:56;31.73;;;14.97;;
81834;SDS011;71272;52.166;4.498;2023-11-18T01:17:21;33.93;;;14.87;;
81834;SDS011;71272;52.166;4.498;2023-11-18T01:19:47;45.78;;;16.67;;
81834;SDS011;71272;52.166;4.498;2023-11-18T01:22:12;34.40;;;15.40;;
81834;SDS011;71272;52.166;4.498;2023-11-18T01:24:37;41.03;;;15.33;;
81834;SDS011;71272;52.166;4.498;2023-11-18T01:27:03;34.83;;;15.50;;
81834;SDS011;71272;52.166;4.498;2023-11-18T01:29:28;35.05;;;16.23;;
81834;SDS011;71272;52.166;4.498;2023-11-18T01:31:53;45.03;;;17.63;;
81834;SDS011;71272;52.166;4.498;2023-11-18T01:36:46;39.92;;;15.65;;
81834;SDS011;71272;52.166;4.498;2023-11-18T01:39:12;35.10;;;15.30;;
81834;SDS011;71272;52.166;4.498;2023-11-18T01:41:38;38.15;;;16.33;;
81834;SDS011;71272;52.166;4.498;2023-11-18T01:44:03;46.60;;;17.13;;
81834;SDS011;71272;52.166;4.498;2023-11-18T01:46:29;33.63;;;16.98;;
81834;SDS011;71272;52.166;4.498;2023-11-18T01:48:55;37.77;;;16.37;;
81834;SDS011;71272;52.166;4.498;2023-11-18T01:51:20;34.38;;;16.98;;
81834;SDS011;71272;52.166;4.498;2023-11-18T01:53:48;32.30;;;16.88;;
81834;SDS011;71272;52.166;4.498;2023-11-18T01:56:15;37.25;;;15.95;;
81834;SDS011;71272;52.166;4.498;2023-11-18T01:58:40;35.83;;;16.57;;
81834;SDS011;71272;52.166;4.498;2023-11-18T02:01:06;31.42;;;15.52;;
81834;SDS011;71272;52.166;4.498;2023-11-18T02:03:33;31.63;;;16.42;;
81834;SDS011;71272;52.166;4.498;2023-11-18T02:05:58;37.15;;;15.07;;
81834;SDS011;71272;52.166;4.498;2023-11-18T02:08:23;34.27;;;17.33;;
81834;SDS011;71272;52.166;4.498;2023-11-18T02:10:53;40.78;;;16.23;;
81834;SDS011;71272;52.166;4.498;2023-11-18T02:13:24;32.97;;;14.10;;
81834;SDS011;71272;52.166;4.498;2023-11-18T02:15:54;31.42;;;15.68;;
81834;SDS011;71272;52.166;4.498;2023-11-18T02:18:23;32.55;;;16.00;;
81834;SDS011;71272;52.166;4.498;2023-11-18T02:20:49;35.13;;;15.55;;
81834;SDS011;71272;52.166;4.498;2023-11-18T02:23:14;27.05;;;15.13;;
81834;SDS011;71272;52.166;4.498;2023-11-18T02:25:46;34.47;;;15.68;;
81834;SDS011;71272;52.166;4.498;2023-11-18T02:28:12;37.97;;;16.35;;
81834;SDS011;71272;52.166;4.498;2023-11-18T02:30:38;39.58;;;15.18;;
81834;SDS011;71272;52.166;4.498;2023-11-18T02:33:07;33.10;;;17.20;;
81834;SDS011;71272;52.166;4.498;2023-11-18T02:35:45;30.95;;;15.55;;
81834;SDS011;71272;52.166;4.498;2023-11-18T02:40:40;28.55;;;14.50;;
81834;SDS011;71272;52.166;4.498;2023-11-18T02:43:08;25.92;;;15.18;;
81834;SDS011;71272;52.166;4.498;2023-11-18T02:45:34;36.70;;;16.75;;
81834;SDS011;71272;52.166;4.498;2023-11-18T02:48:01;30.92;;;15.35;;
81834;SDS011;71272;52.166;4.498;2023-11-18T02:50:26;28.97;;;14.60;;
81834;SDS011;71272;52.166;4.498;2023-11-18T02:52:52;30.58;;;16.35;;
81834;SDS011;71272;52.166;4.498;2023-11-18T02:55:17;32.70;;;15.63;;
81834;SDS011;71272;52.166;4.498;2023-11-18T02:57:43;31.50;;;15.20;;
81834;SDS011;71272;52.166;4.498;2023-11-18T03:00:08;31.60;;;16.17;;
81834;SDS011;71272;52.166;4.498;2023-11-18T03:02:44;32.90;;;15.27;;
81834;SDS011;71272;52.166;4.498;2023-11-18T03:05:11;38.25;;;15.50;;
81834;SDS011;71272;52.166;4.498;2023-11-18T03:07:40;35.53;;;15.75;;
81834;SDS011;71272;52.166;4.498;2023-11-18T03:10:06;34.05;;;14.82;;
81834;SDS011;71272;52.166;4.498;2023-11-18T03:12:36;31.90;;;14.90;;
81834;SDS011;71272;52.166;4.498;2023-11-18T03:15:01;28.37;;;15.10;;
81834;SDS011;71272;52.166;4.498;2023-11-18T03:17:26;34.33;;;14.73;;
81834;SDS011;71272;52.166;4.498;2023-11-18T03:19:52;28.38;;;15.30;;
81834;SDS011;71272;52.166;4.498;2023-11-18T03:22:18;34.78;;;15.77;;
81834;SDS011;71272;52.166;4.498;2023-11-18T03:24:43;34.03;;;16.03;;
81834;SDS011;71272;52.166;4.498;2023-11-18T03:27:08;25.93;;;14.30;;
81834;SDS011;71272;52.166;4.498;2023-11-18T03:29:33;31.40;;;16.70;;
81834;SDS011;71272;52.166;4.498;2023-11-18T03:31:59;37.17;;;16.87;;
81834;SDS011;71272;52.166;4.498;2023-11-18T03:34:24;26.60;;;13.30;;
81834;SDS011;71272;52.166;4.498;2023-11-18T03:36:49;32.23;;;15.27;;
81834;SDS011;71272;52.166;4.498;2023-11-18T03:39:16;30.90;;;13.77;;
81834;SDS011;71272;52.166;4.498;2023-11-18T03:41:41;35.25;;;15.60;;
81834;SDS011;71272;52.166;4.498;2023-11-18T03:44:09;27.50;;;14.85;;
81834;SDS011;71272;52.166;4.498;2023-11-18T03:46:34;27.33;;;15.27;;
81834;SDS011;71272;52.166;4.498;2023-11-18T03:49:00;27.20;;;16.97;;
81834;SDS011;71272;52.166;4.498;2023-11-18T03:51:25;29.52;;;15.57;;
81834;SDS011;71272;52.166;4.498;2023-11-18T03:53:50;26.40;;;16.47;;
81834;SDS011;71272;52.166;4.498;2023-11-18T03:56:16;30.57;;;15.93;;
81834;SDS011;71272;52.166;4.498;2023-11-18T03:58:43;29.38;;;15.32;;
81834;SDS011;71272;52.166;4.498;2023-11-18T04:01:08;24.70;;;15.38;;
81834;SDS011;71272;52.166;4.498;2023-11-18T04:06:01;25.70;;;15.77;;
81834;SDS011;71272;52.166;4.498;2023-11-18T04:08:26;25.40;;;14.97;;
81834;SDS011;71272;52.166;4.498;2023-11-18T04:10:52;30.52;;;14.02;;
81834;SDS011;71272;52.166;4.498;2023-11-18T04:13:17;23.93;;;15.43;;
81834;SDS011;71272;52.166;4.498;2023-11-18T04:15:42;25.60;;;13.47;;
81834;SDS011;71272;52.166;4.498;2023-11-18T04:18:07;31.40;;;13.47;;
81834;SDS011;71272;52.166;4.498;2023-11-18T04:20:32;28.03;;;12.47;;
81834;SDS011;71272;52.166;4.498;2023-11-18T04:22:58;20.73;;;12.87;;
81834;SDS011;71272;52.166;4.498;2023-11-18T04:25:23;30.93;;;14.27;;
81834;SDS011;71272;52.166;4.498;2023-11-18T04:27:48;24.27;;;12.77;;
81834;SDS011;71272;52.166;4.498;2023-11-18T04:30:13;23.63;;;12.50;;
81834;SDS011;71272;52.166;4.498;2023-11-18T04:32:39;32.57;;;13.33;;
81834;SDS011;71272;52.166;4.498;2023-11-18T04:35:04;25.93;;;12.63;;
81834;SDS011;71272;52.166;4.498;2023-11-18T04:37:32;27.50;;;13.68;;
81834;SDS011;71272;52.166;4.498;2023-11-18T04:39:57;30.88;;;13.18;;
81834;SDS011;71272;52.166;4.498;2023-11-18T04:42:22;25.77;;;13.87;;
81834;SDS011;71272;52.166;4.498;2023-11-18T04:44:47;23.20;;;13.70;;
81834;SDS011;71272;52.166;4.498;2023-11-18T04:47:12;28.20;;;13.47;;
81834;SDS011;71272;52.166;4.498;2023-11-18T04:49:38;25.23;;;12.93;;
81834;SDS011;71272;52.166;4.498;2023-11-18T04:52:03;23.63;;;13.30;;
81834;SDS011;71272;52.166;4.498;2023-11-18T04:54:28;24.07;;;13.00;;
81834;SDS011;71272;52.166;4.498;2023-11-18T04:56:54;23.95;;;12.32;;
81834;SDS011;71272;52.166;4.498;2023-11-18T04:59:19;26.87;;;14.80;;
81834;SDS011;71272;52.166;4.498;2023-11-18T05:01:44;26.33;;;13.50;;
81834;SDS011;71272;52.166;4.498;2023-11-18T05:04:10;22.80;;;13.15;;
81834;SDS011;71272;52.166;4.498;2023-11-18T05:06:35;24.08;;;11.85;;
81834;SDS011;71272;52.166;4.498;2023-11-18T05:09:01;22.83;;;13.93;;
81834;SDS011;71272;52.166;4.498;2023-11-18T05:11:26;25.30;;;13.33;;
81834;SDS011;71272;52.166;4.498;2023-11-18T05:13:51;27.20;;;13.93;;
81834;SDS011;71272;52.166;4.498;2023-11-18T05:16:16;22.27;;;12.30;;
81834;SDS011;71272;52.166;4.498;2023-11-18T05:18:41;29.33;;;13.73;;
81834;SDS011;71272;52.166;4.498;2023-11-18T05:21:07;28.30;;;13.60;;
81834;SDS011;71272;52.166;4.498;2023-11-18T05:23:35;29.88;;;13.68;;
81834;SDS011;71272;52.166;4.498;2023-11-18T05:26:00;24.30;;;12.35;;
81834;SDS011;71272;52.166;4.498;2023-11-18T05:28:26;24.42;;;13.77;;
81834;SDS011;71272;52.166;4.498;2023-11-18T05:30:51;24.23;;;13.13;;
81834;SDS011;71272;52.166;4.498;2023-11-18T05:33:17;31.60;;;13.23;;
81834;SDS011;71272;52.166;4.498;2023-11-18T05:35:45;22.85;;;12.60;;
81834;SDS011;71272;52.166;4.498;2023-11-18T05:38:17;23.17;;;12.25;;
81834;SDS011;71272;52.166;4.498;2023-11-18T05:40:51;25.40;;;12.23;;
81834;SDS011;71272;52.166;4.498;2023-11-18T05:43:24;27.77;;;11.82;;
81834;SDS011;71272;52.166;4.498;2023-11-18T05:45:52;23.65;;;13.85;;
81834;SDS011;71272;52.166;4.498;2023-11-18T05:48:35;27.80;;;12.20;;
81834;SDS011;71272;52.166;4.498;2023-11-18T05:51:01;24.43;;;12.63;;
81834;SDS011;71272;52.166;4.498;2023-11-18T05:53:26;22.57;;;12.47;;
81834;SDS011;71272;52.166;4.498;2023-11-18T05:55:52;31.55;;;13.45;;
81834;SDS011;71272;52.166;4.498;2023-11-18T05:58:17;25.13;;;13.37;;
81834;SDS011;71272;52.166;4.498;2023-11-18T06:00:42;24.33;;;12.40;;
81834;SDS011;71272;52.166;4.498;2023-11-18T06:03:07;26.87;;;12.73;;
81834;SDS011;71272;52.166;4.498;2023-11-18T06:05:32;23.97;;;13.53;;
81834;SDS011;71272;52.166;4.498;2023-11-18T06:07:59;25.88;;;13.15;;
81834;SDS011;71272;52.166;4.498;2023-11-18T06:10:25;27.80;;;13.43;;
81834;SDS011;71272;52.166;4.498;2023-11-18T06:12:50;31.37;;;13.60;;
81834;SDS011;71272;52.166;4.498;2023-11-18T06:15:16;29.25;;;13.90;;
81834;SDS011;71272;52.166;4.498;2023-11-18T06:20:09;25.33;;;11.90;;
81834;SDS011;71272;52.166;4.498;2023-11-18T06:22:35;30.10;;;13.30;;
81834;SDS011;71272;52.166;4.498;2023-11-18T06:25:00;28.57;;;13.00;;
81834;SDS011;71272;52.166;4.498;2023-11-18T06:27:26;25.63;;;12.37;;
81834;SDS011;71272;52.166;4.498;2023-11-18T06:29:52;23.67;;;13.43;;
81834;SDS011;71272;52.166;4.498;2023-11-18T06:34:45;20.63;;;13.18;;
81834;SDS011;71272;52.166;4.498;2023-11-18T06:37:10;24.73;;;11.97;;
81834;SDS011;71272;52.166;4.498;2023-11-18T06:39:35;20.57;;;11.67;;
81834;SDS011;71272;52.166;4.498;2023-11-18T06:42:04;25.55;;;12.25;;
81834;SDS011;71272;52.166;4.498;2023-11-18T06:44:36;21.95;;;12.85;;
81834;SDS011;71272;52.166;4.498;2023-11-18T06:47:01;24.50;;;12.63;;
81834;SDS011;71272;52.166;4.498;2023-11-18T06:49:27;24.52;;;12.77;;
81834;SDS011;71272;52.166;4.498;2023-11-18T06:51:54;22.38;;;13.90;;
81834;SDS011;71272;52.166;4.498;2023-11-18T06:54:19;26.60;;;14.47;;
81834;SDS011;71272;52.166;4.498;2023-11-18T06:56:45;28.07;;;13.23;;
81834;SDS011;71272;52.166;4.498;2023-11-18T06:59:10;25.38;;;13.73;;
81834;SDS011;71272;52.166;4.498;2023-11-18T07:01:39;33.45;;;13.35;;
81834;SDS011;71272;52.166;4.498;2023-11-18T07:04:08;34.75;;;14.88;;
81834;SDS011;71272;52.166;4.498;2023-11-18T07:06:34;22.20;;;12.40;;
81834;SDS011;71272;52.166;4.498;2023-11-18T07:09:03;28.98;;;13.80;;
81834;SDS011;71272;52.166;4.498;2023-11-18T07:11:28;23.93;;;13.23;;
81834;SDS011;71272;52.166;4.498;2023-11-18T07:13:53;46.27;;;14.03;;
81834;SDS011;71272;52.166;4.498;2023-11-18T07:16:23;30.58;;;13.88;;
81834;SDS011;71272;52.166;4.498;2023-11-18T07:18:48;29.10;;;12.35;;
81834;SDS011;71272;52.166;4.498;2023-11-18T07:21:13;29.30;;;13.80;;
81834;SDS011;71272;52.166;4.498;2023-11-18T07:23:39;28.92;;;13.27;;
81834;SDS011;71272;52.166;4.498;2023-11-18T07:26:04;23.67;;;13.47;;
81834;SDS011;71272;52.166;4.498;2023-11-18T07:28:29;27.97;;;12.10;;
81834;SDS011;71272;52.166;4.498;2023-11-18T07:30:56;25.17;;;12.68;;
81834;SDS011;71272;52.166;4.498;2023-11-18T07:33:23;23.65;;;12.52;;
81834;SDS011;71272;52.166;4.498;2023-11-18T07:35:48;30.08;;;13.27;;
81834;SDS011;71272;52.166;4.498;2023-11-18T07:38:14;22.40;;;11.65;;
81834;SDS011;71272;52.166;4.498;2023-11-18T07:40:39;30.60;;;13.05;;
81834;SDS011;71272;52.166;4.498;2023-11-18T07:43:10;29.02;;;12.60;;
81834;SDS011;71272;52.166;4.498;2023-11-18T07:45:35;30.55;;;11.75;;
81834;SDS011;71272;52.166;4.498;2023-11-18T07:48:04;23.70;;;11.25;;
81834;SDS011;71272;52.166;4.498;2023-11-18T07:50:31;25.25;;;11.10;;
81834;SDS011;71272;52.166;4.498;2023-11-18T07:52:57;28.63;;;11.70;;
81834;SDS011;71272;52.166;4.498;2023-11-18T07:55:22;20.47;;;11.73;;
81834;SDS011;71272;52.166;4.498;2023-11-18T07:57:48;26.88;;;11.30;;
81834;SDS011;71272;52.166;4.498;2023-11-18T08:00:13;29.40;;;12.00;;
81834;SDS011;71272;52.166;4.498;2023-11-18T08:02:40;28.08;;;10.50;;
81834;SDS011;71272;52.166;4.498;2023-11-18T08:05:05;16.50;;;10.33;;
81834;SDS011;71272;52.166;4.498;2023-11-18T08:07:34;31.05;;;12.65;;
81834;SDS011;71272;52.166;4.498;2023-11-18T08:10:00;26.70;;;11.82;;
81834;SDS011;71272;52.166;4.498;2023-11-18T08:12:28;23.45;;;10.52;;
81834;SDS011;71272;52.166;4.498;2023-11-18T08:14:54;23.77;;;10.15;;
81834;SDS011;71272;52.166;4.498;2023-11-18T08:17:19;30.70;;;11.40;;
81834;SDS011;71272;52.166;4.498;2023-11-18T08:19:45;25.55;;;11.02;;
81834;SDS011;71272;52.166;4.498;2023-11-18T08:22:11;23.88;;;12.55;;
81834;SDS011;71272;52.166;4.498;2023-11-18T08:27:39;17.80;;;9.45;;
81834;SDS011;71272;52.166;4.498;2023-11-18T08:30:05;23.75;;;10.77;;
81834;SDS011;71272;52.166;4.498;2023-11-18T08:32:36;25.02;;;10.18;;
81834;SDS011;71272;52.166;4.498;2023-11-18T08:35:01;26.37;;;10.00;;
81834;SDS011;71272;52.166;4.498;2023-11-18T08:37:26;21.13;;;10.10;;
81834;SDS011;71272;52.166;4.498;2023-11-18T08:39:55;24.23;;;10.55;;
81834;SDS011;71272;52.166;4.498;2023-11-18T08:42:21;22.45;;;9.32;;
81834;SDS011;71272;52.166;4.498;2023-11-18T08:44:50;22.55;;;10.77;;
81834;SDS011;71272;52.166;4.498;2023-11-18T08:47:15;26.67;;;11.20;;
81834;SDS011;71272;52.166;4.498;2023-11-18T08:49:42;21.70;;;10.03;;
81834;SDS011;71272;52.166;4.498;2023-11-18T08:52:07;23.80;;;10.68;;
81834;SDS011;71272;52.166;4.498;2023-11-18T08:54:35;18.73;;;10.68;;
81834;SDS011;71272;52.166;4.498;2023-11-18T08:57:19;24.55;;;10.75;;
81834;SDS011;71272;52.166;4.498;2023-11-18T08:59:50;27.77;;;11.48;;
81834;SDS011;71272;52.166;4.498;2023-11-18T09:02:17;30.48;;;11.05;;
81834;SDS011;71272;52.166;4.498;2023-11-18T09:04:42;37.30;;;12.85;;
81834;SDS011;71272;52.166;4.498;2023-11-18T09:07:08;29.30;;;12.43;;
81834;SDS011;71272;52.166;4.498;2023-11-18T09:09:34;24.52;;;10.27;;
81834;SDS011;71272;52.166;4.498;2023-11-18T09:12:00;26.83;;;11.47;;
81834;SDS011;71272;52.166;4.498;2023-11-18T09:14:27;23.65;;;11.48;;
81834;SDS011;71272;52.166;4.498;2023-11-18T09:16:53;28.60;;;11.17;;
81834;SDS011;71272;52.166;4.498;2023-11-18T09:19:21;22.50;;;11.75;;
81834;SDS011;71272;52.166;4.498;2023-11-18T09:21:47;35.10;;;14.13;;
81834;SDS011;71272;52.166;4.498;2023-11-18T09:24:12;30.45;;;13.82;;
81834;SDS011;71272;52.166;4.498;2023-11-18T09:26:39;53.70;;;17.00;;
81834;SDS011;71272;52.166;4.498;2023-11-18T09:29:05;28.05;;;13.25;;
81834;SDS011;71272;52.166;4.498;2023-11-18T09:31:33;25.92;;;13.18;;
81834;SDS011;71272;52.166;4.498;2023-11-18T09:33:58;26.20;;;12.03;;
81834;SDS011;71272;52.166;4.498;2023-11-18T09:36:24;22.98;;;12.82;;
81834;SDS011;71272;52.166;4.498;2023-11-18T09:38:53;29.48;;;13.45;;
81834;SDS011;71272;52.166;4.498;2023-11-18T09:41:18;31.47;;;13.90;;
81834;SDS011;71272;52.166;4.498;2023-11-18T09:43:44;28.23;;;11.73;;
81834;SDS011;71272;52.166;4.498;2023-11-18T09:51:13;26.30;;;11.27;;
81834;SDS011;71272;52.166;4.498;2023-11-18T09:53:41;25.40;;;9.43;;
81834;SDS011;71272;52.166;4.498;2023-11-18T09:56:10;29.65;;;10.38;;
81834;SDS011;71272;52.166;4.498;2023-11-18T09:58:45;22.13;;;11.50;;
81834;SDS011;71272;52.166;4.498;2023-11-18T10:01:13;28.60;;;11.48;;
81834;SDS011;71272;52.166;4.498;2023-11-18T10:03:43;28.75;;;10.80;;
81834;SDS011;71272;52.166;4.498;2023-11-18T10:08:36;29.55;;;9.55;;
81834;SDS011;71272;52.166;4.498;2023-11-18T10:11:04;23.40;;;8.88;;
81834;SDS011;71272;52.166;4.498;2023-11-18T10:13:34;20.50;;;8.73;;
81834;SDS011;71272;52.166;4.498;2023-11-18T10:16:00;16.25;;;7.68;;
81834;SDS011;71272;52.166;4.498;2023-11-18T10:18:26;24.38;;;8.10;;
81834;SDS011;71272;52.166;4.498;2023-11-18T10:20:53;16.77;;;7.97;;
81834;SDS011;71272;52.166;4.498;2023-11-18T10:23:19;17.83;;;7.23;;
81834;SDS011;71272;52.166;4.498;2023-11-18T10:25:53;17.92;;;8.82;;
81834;SDS011;71272;52.166;4.498;2023-11-18T10:28:25;21.20;;;8.20;;
81834;SDS011;71272;52.166;4.498;2023-11-18T10:30:54;14.90;;;7.68;;
81834;SDS011;71272;52.166;4.498;2023-11-18T10:33:22;18.63;;;6.75;;
81834;SDS011;71272;52.166;4.498;2023-11-18T10:35:50;21.17;;;6.60;;
81834;SDS011;71272;52.166;4.498;2023-11-18T10:38:16;18.95;;;7.47;;
81834;SDS011;71272;52.166;4.498;2023-11-18T10:40:41;18.77;;;8.55;;
81834;SDS011;71272;52.166;4.498;2023-11-18T10:43:07;17.33;;;7.07;;
81834;SDS011;71272;52.166;4.498;2023-11-18T10:45:36;25.73;;;9.07;;
81834;SDS011;71272;52.166;4.498;2023-11-18T10:48:06;22.17;;;8.05;;
81834;SDS011;71272;52.166;4.498;2023-11-18T12:18:33;16.02;;;6.88;;
81834;SDS011;71272;52.166;4.498;2023-11-18T12:21:08;17.88;;;6.78;;
81834;SDS011;71272;52.166;4.498;2023-11-18T12:36:09;16.73;;;5.90;;
81834;SDS011;71272;52.166;4.498;2023-11-18T12:57:30;8.27;;;4.65;;
81834;SDS011;71272;52.166;4.498;2023-11-18T13:03:38;12.13;;;5.57;;
81834;SDS011;71272;52.166;4.498;2023-11-18T13:12:24;9.57;;;4.30;;
81834;SDS011;71272;52.166;4.498;2023-11-18T13:27:20;6.85;;;3.83;;
81834;SDS011;71272;52.166;4.498;2023-11-18T14:11:44;5.95;;;3.45;;
81834;SDS011;71272;52.166;4.498;2023-11-18T14:14:10;6.88;;;3.78;;
81834;SDS011;71272;52.166;4.498;2023-11-18T14:16:35;7.57;;;3.43;;
81834;SDS011;71272;52.166;4.498;2023-11-18T14:19:00;4.70;;;2.83;;
81834;SDS011;71272;52.166;4.498;2023-11-18T14:21:25;6.20;;;3.37;;
81834;SDS011;71272;52.166;4.498;2023-11-18T14:23:50;5.40;;;2.90;;
81834;SDS011;71272;52.166;4.498;2023-11-18T14:26:16;4.87;;;2.47;;
81834;SDS011;71272;52.166;4.498;2023-11-18T14:28:41;6.73;;;3.30;;
81834;SDS011;71272;52.166;4.498;2023-11-18T14:31:07;6.90;;;2.95;;
81834;SDS011;71272;52.166;4.498;2023-11-18T14:33:34;4.63;;;3.05;;
81834;SDS011;71272;52.166;4.498;2023-11-18T14:36:00;6.40;;;3.07;;
81834;SDS011;71272;52.166;4.498;2023-11-18T14:38:30;6.13;;;2.72;;
81834;SDS011;71272;52.166;4.498;2023-11-18T14:40:55;5.37;;;2.70;;
81834;SDS011;71272;52.166;4.498;2023-11-18T14:43:21;5.28;;;3.03;;
81834;SDS011;71272;52.166;4.498;2023-11-18T14:45:46;14.57;;;6.83;;
81834;SDS011;71272;52.166;4.498;2023-11-18T14:48:11;11.73;;;4.70;;
81834;SDS011;71272;52.166;4.498;2023-11-18T14:50:38;4.90;;;3.05;;
81834;SDS011;71272;52.166;4.498;2023-11-18T14:53:03;6.53;;;3.43;;
81834;SDS011;71272;52.166;4.498;2023-11-18T14:55:29;4.83;;;2.80;;
81834;SDS011;71272;52.166;4.498;2023-11-18T14:57:55;5.75;;;2.85;;
81834;SDS011;71272;52.166;4.498;2023-11-18T15:00:20;6.50;;;3.67;;
81834;SDS011;71272;52.166;4.498;2023-11-18T15:02:52;6.40;;;3.50;;
81834;SDS011;71272;52.166;4.498;2023-11-18T15:05:18;4.95;;;2.85;;
81834;SDS011;71272;52.166;4.498;2023-11-18T15:07:44;6.30;;;3.75;;
81834;SDS011;71272;52.166;4.498;2023-11-18T15:10:10;6.65;;;3.70;;
81834;SDS011;71272;52.166;4.498;2023-11-18T15:12:35;6.97;;;4.50;;
81834;SDS011;71272;52.166;4.498;2023-11-18T15:15:02;6.20;;;3.35;;
81834;SDS011;71272;52.166;4.498;2023-11-18T15:17:28;6.80;;;3.95;;
81834;SDS011;71272;52.166;4.498;2023-11-18T15:19:53;9.53;;;4.73;;
81834;SDS011;71272;52.166;4.498;2023-11-18T15:22:20;8.05;;;4.97;;
81834;SDS011;71272;52.166;4.498;2023-11-18T15:24:45;8.67;;;4.40;;
81834;SDS011;71272;52.166;4.498;2023-11-18T15:27:12;9.10;;;4.93;;
81834;SDS011;71272;52.166;4.498;2023-11-18T15:29:40;8.32;;;4.72;;
81834;SDS011;71272;52.166;4.498;2023-11-18T15:32:14;8.00;;;5.03;;
81834;SDS011;71272;52.166;4.498;2023-11-18T15:34:39;8.50;;;5.07;;
81834;SDS011;71272;52.166;4.498;2023-11-18T15:37:04;10.13;;;5.10;;
81834;SDS011;71272;52.166;4.498;2023-11-18T15:39:29;9.23;;;5.23;;
81834;SDS011;71272;52.166;4.498;2023-11-18T15:41:55;9.60;;;5.50;;
81834;SDS011;71272;52.166;4.498;2023-11-18T15:44:22;8.55;;;5.72;;
81834;SDS011;71272;52.166;4.498;2023-11-18T15:49:14;10.38;;;6.60;;
81834;SDS011;71272;52.166;4.498;2023-11-18T15:51:39;17.00;;;7.93;;
81834;SDS011;71272;52.166;4.498;2023-11-18T15:54:05;14.23;;;7.63;;
81834;SDS011;71272;52.166;4.498;2023-11-18T15:56:30;15.93;;;8.73;;
81834;SDS011;71272;52.166;4.498;2023-11-18T15:58:55;23.83;;;12.00;;
81834;SDS011;71272;52.166;4.498;2023-11-18T16:01:20;9.57;;;6.87;;
81834;SDS011;71272;52.166;4.498;2023-11-18T16:03:46;8.00;;;5.05;;
81834;SDS011;71272;52.166;4.498;2023-11-18T16:06:11;8.17;;;5.30;;
81834;SDS011;71272;52.166;4.498;2023-11-18T16:08:36;9.20;;;5.20;;
81834;SDS011;71272;52.166;4.498;2023-11-18T16:11:01;10.43;;;6.13;;
81834;SDS011;71272;52.166;4.498;2023-11-18T16:13:27;9.33;;;5.17;;
81834;SDS011;71272;52.166;4.498;2023-11-18T16:15:52;12.82;;;6.55;;
81834;SDS011;71272;52.166;4.498;2023-11-18T16:18:17;10.50;;;6.43;;
81834;SDS011;71272;52.166;4.498;2023-11-18T16:20:43;9.33;;;5.60;;
81834;SDS011;71272;52.166;4.498;2023-11-18T16:23:08;14.30;;;8.33;;
81834;SDS011;71272;52.166;4.498;2023-11-18T16:25:35;11.20;;;6.28;;
81834;SDS011;71272;52.166;4.498;2023-11-18T16:28:00;10.43;;;6.40;;
81834;SDS011;71272;52.166;4.498;2023-11-18T16:30:27;9.27;;;5.82;;
81834;SDS011;71272;52.166;4.498;2023-11-18T16:35:19;12.07;;;8.20;;
81834;SDS011;71272;52.166;4.498;2023-11-18T16:37:45;15.95;;;8.13;;
81834;SDS011;71272;52.166;4.498;2023-11-18T16:40:11;11.73;;;7.00;;
81834;SDS011;71272;52.166;4.498;2023-11-18T16:42:42;12.18;;;7.32;;
81834;SDS011;71272;52.166;4.498;2023-11-18T16:45:11;16.30;;;8.77;;
81834;SDS011;71272;52.166;4.498;2023-11-18T16:47:40;13.73;;;8.80;;
81834;SDS011;71272;52.166;4.498;2023-11-18T16:50:07;15.32;;;9.45;;
81834;SDS011;71272;52.166;4.498;2023-11-18T16:52:35;18.92;;;10.07;;
81834;SDS011;71272;52.166;4.498;2023-11-18T16:55:01;17.40;;;9.63;;
81834;SDS011;71272;52.166;4.498;2023-11-18T16:57:26;18.60;;;10.73;;
81834;SDS011;71272;52.166;4.498;2023-11-18T16:59:51;18.67;;;9.97;;
81834;SDS011;71272;52.166;4.498;2023-11-18T17:02:17;18.13;;;10.47;;
81834;SDS011;71272;52.166;4.498;2023-11-18T17:04:43;18.33;;;10.00;;
81834;SDS011;71272;52.166;4.498;2023-11-18T17:07:09;21.33;;;11.02;;
81834;SDS011;71272;52.166;4.498;2023-11-18T17:09:34;21.80;;;11.40;;
81834;SDS011;71272;52.166;4.498;2023-11-18T17:11:59;24.63;;;12.27;;
81834;SDS011;71272;52.166;4.498;2023-11-18T17:14:25;26.70;;;13.20;;
81834;SDS011;71272;52.166;4.498;2023-11-18T17:16:50;25.33;;;13.33;;
81834;SDS011;71272;52.166;4.498;2023-11-18T17:19:15;27.85;;;14.35;;
81834;SDS011;71272;52.166;4.498;2023-11-18T17:21:40;29.93;;;14.87;;
81834;SDS011;71272;52.166;4.498;2023-11-18T17:24:08;32.45;;;16.42;;
81834;SDS011;71272;52.166;4.498;2023-11-18T17:26:33;34.47;;;16.60;;
81834;SDS011;71272;52.166;4.498;2023-11-18T17:29:01;32.08;;;17.50;;
81834;SDS011;71272;52.166;4.498;2023-11-18T17:31:26;37.23;;;18.47;;
81834;SDS011;71272;52.166;4.498;2023-11-18T17:33:52;34.22;;;16.92;;
81834;SDS011;71272;52.166;4.498;2023-11-18T17:36:17;37.30;;;19.30;;
81834;SDS011;71272;52.166;4.498;2023-11-18T17:38:44;35.10;;;17.90;;
81834;SDS011;71272;52.166;4.498;2023-11-18T17:41:10;38.53;;;18.03;;
81834;SDS011;71272;52.166;4.498;2023-11-18T17:43:35;33.77;;;17.30;;
81834;SDS011;71272;52.166;4.498;2023-11-18T17:46:00;36.93;;;18.80;;
81834;SDS011;71272;52.166;4.498;2023-11-18T17:48:26;36.90;;;18.98;;
81834;SDS011;71272;52.166;4.498;2023-11-18T17:50:51;38.23;;;18.23;;
81834;SDS011;71272;52.166;4.498;2023-11-18T17:53:18;42.03;;;17.75;;